createdAt,value
2017-06-09T00:00:14.224Z,23.50
2017-06-09T00:02:42.568Z,23.00
2017-06-09T00:05:10.105Z,23.00
2017-06-09T00:07:37.685Z,23.30
2017-06-09T00:10:05.248Z,23.20
2017-06-09T00:12:32.802Z,23.30
2017-06-09T00:15:00.320Z,23.40
2017-06-09T00:17:27.875Z,23.50
2017-06-09T00:19:55.393Z,23.70
2017-06-09T00:22:22.926Z,23.40
2017-06-09T00:24:50.468Z,23.40
2017-06-09T00:27:17.986Z,23.20
2017-06-09T00:29:45.486Z,23.30
2017-06-09T00:32:13.027Z,23.10
2017-06-09T00:34:41.337Z,23.40
2017-06-09T00:37:08.885Z,23.30
2017-06-09T00:39:36.405Z,23.50
2017-06-09T00:42:04.718Z,23.50
2017-06-09T00:44:32.236Z,23.50
2017-06-09T00:46:59.779Z,23.50
2017-06-09T00:49:27.278Z,23.50
2017-06-09T00:51:54.822Z,23.50
2017-06-09T00:54:23.095Z,23.20
2017-06-09T00:56:50.650Z,23.20
2017-06-09T00:59:18.992Z,23.20
2017-06-09T01:01:46.522Z,23.20
2017-06-09T01:04:14.122Z,23.10
2017-06-09T01:06:41.652Z,22.80
2017-06-09T01:09:09.156Z,22.30
2017-06-09T01:11:36.687Z,22.20
2017-06-09T01:14:04.227Z,22.30
2017-06-09T01:16:31.824Z,22.30
2017-06-09T01:18:59.377Z,22.30
2017-06-09T01:21:26.926Z,22.50
2017-06-09T01:23:54.479Z,22.40
2017-06-09T01:26:22.054Z,22.50
2017-06-09T01:28:49.599Z,22.40
2017-06-09T01:31:17.185Z,22.50
2017-06-09T01:33:44.720Z,22.50
2017-06-09T01:36:12.268Z,22.90
2017-06-09T01:38:39.823Z,22.80
2017-06-09T01:41:07.352Z,22.70
2017-06-09T01:43:34.884Z,22.80
2017-06-09T01:46:02.404Z,22.70
2017-06-09T01:48:29.998Z,22.90
2017-06-09T01:50:57.534Z,23.00
2017-06-09T01:53:25.065Z,22.90
2017-06-09T01:55:53.375Z,22.50
2017-06-09T01:58:20.998Z,22.50
2017-06-09T02:00:48.570Z,22.50
2017-06-09T02:03:16.122Z,22.60
2017-06-09T02:05:44.445Z,22.90
2017-06-09T02:08:12.006Z,22.90
2017-06-09T02:10:39.572Z,22.70
2017-06-09T02:13:07.104Z,22.80
2017-06-09T02:15:34.637Z,22.40
2017-06-09T02:18:02.988Z,22.50
2017-06-09T02:20:30.499Z,22.50
2017-06-09T02:22:58.031Z,22.50
2017-06-09T02:25:26.348Z,22.70
2017-06-09T02:27:53.905Z,22.70
2017-06-09T02:30:21.426Z,22.60
2017-06-09T02:32:48.982Z,22.70
2017-06-09T02:35:17.274Z,22.50
2017-06-09T02:37:45.575Z,22.60
2017-06-09T02:40:13.112Z,22.60
2017-06-09T02:42:41.408Z,22.60
2017-06-09T02:45:08.912Z,22.60
2017-06-09T02:47:36.491Z,22.70
2017-06-09T02:50:04.020Z,22.90
2017-06-09T02:52:31.559Z,22.80
2017-06-09T02:54:59.099Z,22.80
2017-06-09T02:57:26.634Z,22.70
2017-06-09T02:59:54.954Z,22.40
2017-06-09T03:02:22.504Z,22.40
2017-06-09T03:04:50.045Z,22.50
2017-06-09T03:07:18.375Z,22.80
2017-06-09T03:09:45.904Z,22.80
2017-06-09T03:12:13.447Z,22.60
2017-06-09T03:14:41.753Z,22.50
2017-06-09T03:17:09.318Z,22.50
2017-06-09T03:19:37.785Z,22.60
2017-06-09T03:22:05.335Z,22.50
2017-06-09T03:24:32.859Z,22.50
2017-06-09T03:27:00.388Z,22.40
2017-06-09T03:29:27.910Z,22.30
2017-06-09T03:32:14.175Z,22.40
2017-06-09T03:34:41.680Z,22.40
2017-06-09T03:37:09.275Z,22.40
2017-06-09T03:39:36.778Z,22.20
2017-06-09T03:42:05.059Z,22.40
2017-06-09T03:44:32.600Z,22.40
2017-06-09T03:47:00.874Z,22.40
2017-06-09T03:49:28.475Z,22.40
2017-06-09T03:51:56.023Z,23.00
2017-06-09T03:54:23.579Z,22.90
2017-06-09T03:56:51.095Z,23.10
2017-06-09T03:59:18.663Z,23.20
2017-06-09T04:01:46.198Z,23.50
2017-06-09T04:04:13.734Z,23.40
2017-06-09T04:06:41.241Z,23.50
2017-06-09T04:09:08.800Z,23.40
2017-06-09T04:11:36.332Z,23.40
2017-06-09T04:14:03.923Z,23.30
2017-06-09T04:16:31.434Z,23.60
2017-06-09T04:18:58.997Z,23.60
2017-06-09T04:21:26.514Z,23.50
2017-06-09T04:23:54.840Z,23.70
2017-06-09T04:26:22.396Z,23.70
2017-06-09T04:28:49.959Z,23.60
2017-06-09T04:31:17.515Z,23.60
2017-06-09T04:33:45.059Z,23.60
2017-06-09T04:36:12.599Z,23.70
2017-06-09T04:38:40.918Z,23.80
2017-06-09T04:41:08.434Z,23.80
2017-06-09T04:43:36.742Z,23.50
2017-06-09T04:46:04.304Z,23.40
2017-06-09T04:48:31.857Z,23.50
2017-06-09T04:50:59.370Z,23.60
2017-06-09T04:53:26.939Z,23.70
2017-06-09T04:55:54.465Z,23.70
2017-06-09T04:58:22.030Z,23.70
2017-06-09T05:00:49.559Z,23.70
2017-06-09T05:03:17.097Z,23.90
2017-06-09T05:05:44.613Z,23.80
2017-06-09T05:08:12.149Z,24.00
2017-06-09T05:10:39.661Z,24.00
2017-06-09T05:13:07.200Z,24.00
2017-06-09T05:15:34.725Z,23.80
2017-06-09T05:18:02.262Z,24.00
2017-06-09T05:20:29.824Z,23.80
2017-06-09T05:22:57.334Z,23.90
2017-06-09T05:25:24.898Z,24.10
2017-06-09T05:27:52.429Z,24.30
2017-06-09T05:30:19.984Z,24.50
2017-06-09T05:32:47.556Z,24.40
2017-06-09T05:35:15.088Z,24.20
2017-06-09T05:37:42.614Z,24.10
2017-06-09T05:40:10.189Z,24.10
2017-06-09T05:42:37.743Z,24.10
2017-06-09T05:45:06.054Z,24.20
2017-06-09T05:47:33.640Z,24.20
2017-06-09T05:50:01.203Z,24.00
2017-06-09T05:52:28.770Z,24.00
2017-06-09T05:54:56.350Z,24.00
2017-06-09T05:57:24.687Z,23.90
2017-06-09T05:59:52.238Z,23.90
2017-06-09T06:02:19.811Z,23.90
2017-06-09T06:04:47.363Z,24.10
2017-06-09T06:07:14.906Z,24.20
2017-06-09T06:09:42.466Z,24.30
2017-06-09T06:12:10.042Z,24.20
2017-06-09T06:14:37.584Z,24.10
2017-06-09T06:17:05.129Z,24.00
2017-06-09T06:19:32.694Z,24.40
2017-06-09T06:22:00.264Z,24.90
2017-06-09T06:24:27.803Z,25.30
2017-06-09T06:26:56.141Z,25.50
2017-06-09T06:29:23.718Z,25.40
2017-06-09T06:31:51.272Z,25.20
2017-06-09T06:34:18.827Z,25.20
2017-06-09T06:36:46.360Z,25.20
2017-06-09T06:39:13.922Z,25.60
2017-06-09T06:41:41.460Z,25.90
2017-06-09T06:44:09.027Z,26.30
2017-06-09T06:46:36.555Z,26.60
2017-06-09T06:49:04.868Z,26.70
2017-06-09T06:51:32.426Z,26.70
2017-06-09T06:53:59.939Z,26.90
2017-06-09T06:56:27.545Z,26.90
2017-06-09T06:58:55.066Z,26.90
2017-06-09T07:01:22.632Z,27.10
2017-06-09T07:03:50.164Z,27.00
2017-06-09T07:06:17.753Z,27.10
2017-06-09T07:08:45.258Z,27.50
2017-06-09T07:11:12.785Z,27.70
2017-06-09T07:13:40.316Z,28.00
2017-06-09T07:16:07.912Z,28.40
2017-06-09T07:18:35.461Z,28.60
2017-06-09T07:21:07.081Z,28.10
2017-06-09T07:23:34.605Z,28.30
2017-06-09T07:26:02.142Z,28.50
2017-06-09T07:28:29.683Z,28.70
2017-06-09T07:30:58.007Z,28.40
2017-06-09T07:33:25.518Z,28.40
2017-06-09T07:35:53.849Z,28.00
2017-06-09T07:38:21.370Z,28.00
2017-06-09T07:40:49.688Z,27.40
2017-06-09T07:43:17.217Z,27.40
2017-06-09T07:45:44.750Z,27.20
2017-06-09T07:48:12.295Z,26.80
2017-06-09T07:50:39.882Z,27.20
2017-06-09T07:53:08.194Z,27.10
2017-06-09T07:55:35.732Z,27.00
2017-06-09T07:58:03.266Z,26.70
2017-06-09T08:00:30.811Z,26.80
2017-06-09T08:02:58.320Z,26.90
2017-06-09T08:05:25.864Z,27.20
2017-06-09T08:07:54.187Z,27.20
2017-06-09T08:10:21.748Z,27.20
2017-06-09T08:12:49.280Z,26.80
2017-06-09T08:15:16.861Z,26.70
2017-06-09T08:17:44.399Z,27.00
2017-06-09T08:20:11.929Z,27.30
2017-06-09T08:22:39.464Z,27.10
2017-06-09T08:25:07.500Z,26.90
2017-06-09T08:27:35.037Z,26.30
2017-06-09T08:30:02.600Z,26.40
2017-06-09T08:32:30.146Z,25.90
2017-06-09T08:34:57.691Z,25.70
2017-06-09T08:37:25.215Z,25.80
2017-06-09T08:39:52.706Z,25.90
2017-06-09T08:42:20.253Z,26.30
2017-06-09T08:44:47.779Z,26.00
2017-06-09T08:47:15.318Z,25.60
2017-06-09T08:49:42.846Z,25.50
2017-06-09T08:52:10.398Z,25.60
2017-06-09T08:54:37.940Z,26.00
2017-06-09T08:57:05.514Z,25.60
2017-06-09T08:59:33.082Z,26.20
2017-06-09T09:02:00.640Z,26.40
2017-06-09T09:04:28.183Z,26.40
2017-06-09T09:06:55.723Z,25.90
2017-06-09T09:09:23.264Z,26.00
2017-06-09T09:11:50.827Z,25.70
2017-06-09T09:14:18.432Z,25.30
2017-06-09T09:16:45.983Z,25.40
2017-06-09T09:19:13.534Z,25.80
2017-06-09T09:21:41.063Z,26.00
2017-06-09T09:24:08.586Z,26.20
2017-06-09T09:26:36.129Z,25.50
2017-06-09T09:29:03.638Z,25.90
2017-06-09T09:31:31.203Z,25.60
2017-06-09T09:33:58.719Z,24.90
2017-06-09T09:36:26.256Z,25.10
2017-06-09T09:38:53.766Z,25.10
2017-06-09T09:41:21.317Z,24.80
2017-06-09T09:43:49.627Z,24.80
2017-06-09T09:46:17.163Z,24.70
2017-06-09T09:48:44.702Z,25.00
2017-06-09T09:51:12.248Z,24.90
2017-06-09T09:53:39.790Z,24.20
2017-06-09T09:56:07.361Z,24.20
2017-06-09T09:58:34.907Z,23.40
2017-06-09T10:01:02.494Z,23.80
2017-06-09T10:03:30.055Z,23.10
2017-06-09T10:05:57.599Z,22.30
2017-06-09T10:08:25.947Z,23.20
2017-06-09T10:10:53.469Z,23.10
2017-06-09T10:13:21.061Z,23.80
2017-06-09T10:15:48.628Z,24.00
2017-06-09T10:18:16.180Z,24.10
2017-06-09T10:20:43.742Z,23.90
2017-06-09T10:23:11.305Z,23.60
2017-06-09T10:25:38.865Z,23.30
2017-06-09T10:28:06.427Z,23.20
2017-06-09T10:30:34.005Z,22.60
2017-06-09T10:33:01.558Z,22.50
2017-06-09T10:35:29.128Z,22.80
2017-06-09T10:37:56.660Z,22.70
2017-06-09T10:40:24.162Z,22.20
2017-06-09T10:42:51.688Z,22.10
2017-06-09T10:45:19.236Z,21.40
2017-06-09T10:47:46.770Z,21.70
2017-06-09T10:50:15.053Z,22.00
2017-06-09T10:52:42.637Z,22.00
2017-06-09T10:55:10.143Z,22.40
2017-06-09T10:57:37.770Z,21.60
2017-06-09T11:00:05.319Z,22.10
2017-06-09T11:02:32.886Z,22.00
2017-06-09T11:05:00.416Z,21.30
2017-06-09T11:07:28.768Z,21.50
2017-06-09T11:09:56.290Z,21.50
2017-06-09T11:12:23.840Z,21.30
2017-06-09T11:14:51.385Z,21.10
2017-06-09T11:17:18.914Z,21.10
2017-06-09T11:19:46.433Z,20.70
2017-06-09T11:22:13.982Z,20.20
2017-06-09T11:24:41.526Z,20.00
2017-06-09T11:27:09.067Z,19.70
2017-06-09T11:29:37.355Z,20.40
2017-06-09T11:32:04.941Z,20.40
2017-06-09T11:34:32.454Z,20.70
2017-06-09T11:37:00.738Z,21.20
2017-06-09T11:39:28.332Z,21.10
2017-06-09T11:41:55.862Z,21.50
2017-06-09T11:44:24.138Z,22.30
2017-06-09T11:46:52.482Z,22.60
2017-06-09T11:49:20.017Z,22.60
2017-06-09T11:51:47.542Z,23.10
2017-06-09T11:54:15.103Z,23.20
2017-06-09T11:56:42.636Z,23.10
2017-06-09T11:59:10.929Z,23.90
2017-06-09T12:01:38.475Z,23.90
2017-06-09T12:04:06.091Z,23.90
2017-06-09T12:06:33.663Z,23.40
2017-06-09T12:09:01.255Z,23.30
2017-06-09T12:11:29.604Z,22.80
2017-06-09T12:13:57.202Z,22.80
2017-06-09T12:16:25.502Z,22.60
2017-06-09T12:18:53.222Z,22.60
2017-06-09T12:21:21.526Z,23.10
2017-06-09T12:23:49.852Z,22.70
2017-06-09T12:26:17.369Z,22.60
2017-06-09T12:28:45.674Z,22.20
2017-06-09T12:31:13.215Z,22.20
2017-06-09T12:33:40.755Z,22.10
2017-06-09T12:36:09.026Z,22.50
2017-06-09T12:38:37.367Z,22.70
2017-06-09T12:41:04.928Z,22.70
2017-06-09T12:43:32.743Z,22.90
2017-06-09T12:46:00.346Z,23.10
2017-06-09T12:48:28.266Z,23.00
2017-06-09T12:50:55.791Z,23.10
2017-06-09T12:53:23.422Z,22.50
2017-06-09T12:55:50.985Z,22.90
2017-06-09T12:58:18.603Z,22.80
2017-06-09T13:00:46.163Z,22.50
2017-06-09T13:03:13.728Z,23.00
2017-06-09T13:05:41.275Z,23.70
2017-06-09T13:08:09.612Z,25.00
2017-06-09T13:10:37.130Z,25.00
2017-06-09T13:13:05.450Z,25.90
2017-06-09T13:15:32.971Z,25.80
2017-06-09T13:18:01.298Z,24.60
2017-06-09T13:20:28.837Z,24.60
2017-06-09T13:22:56.367Z,24.50
2017-06-09T13:25:24.681Z,24.70
2017-06-09T13:27:52.219Z,24.70
2017-06-09T13:30:19.750Z,24.60
2017-06-09T13:32:48.043Z,24.70
2017-06-09T13:35:15.599Z,24.60
2017-06-09T13:37:43.172Z,24.60
2017-06-09T13:40:11.503Z,25.10
2017-06-09T13:42:39.057Z,25.10
2017-06-09T13:45:06.651Z,25.10
2017-06-09T13:47:34.956Z,24.60
2017-06-09T13:50:02.496Z,24.60
2017-06-09T13:52:30.054Z,24.80
2017-06-09T13:54:58.360Z,25.10
2017-06-09T13:57:25.891Z,25.00
2017-06-09T13:59:54.231Z,25.50
2017-06-09T14:02:21.791Z,25.50
2017-06-09T14:04:49.361Z,25.50
2017-06-09T14:07:16.867Z,25.70
2017-06-09T14:09:44.401Z,25.80
2017-06-09T14:12:11.910Z,26.10
2017-06-09T14:14:39.463Z,26.10
2017-06-09T14:17:06.987Z,26.50
2017-06-09T14:19:34.521Z,26.80
2017-06-09T14:22:02.075Z,26.90
2017-06-09T14:24:29.595Z,26.80
2017-06-09T14:26:57.111Z,26.20
2017-06-09T14:29:24.663Z,25.90
2017-06-09T14:31:52.213Z,25.20
2017-06-09T14:34:19.761Z,25.50
2017-06-09T14:36:47.326Z,26.10
2017-06-09T14:39:14.851Z,26.40
2017-06-09T14:41:42.371Z,26.60
2017-06-09T14:44:09.926Z,26.50
2017-06-09T14:46:37.478Z,26.30
2017-06-09T14:49:05.022Z,25.60
2017-06-09T14:51:32.548Z,24.90
2017-06-09T14:54:00.087Z,25.30
2017-06-09T14:56:27.611Z,24.80
2017-06-09T14:58:55.164Z,24.20
2017-06-09T15:01:22.688Z,23.30
2017-06-09T15:03:50.229Z,24.00
2017-06-09T15:06:17.761Z,24.30
2017-06-09T15:08:45.299Z,24.90
2017-06-09T15:11:12.859Z,24.40
2017-06-09T15:13:40.410Z,24.60
2017-06-09T15:16:07.976Z,25.00
2017-06-09T15:18:35.548Z,25.10
2017-06-09T15:21:03.098Z,25.60
2017-06-09T15:23:30.636Z,26.00
2017-06-09T15:25:58.166Z,26.20
2017-06-09T15:28:26.445Z,25.60
2017-06-09T15:30:54.003Z,25.50
2017-06-09T15:33:21.548Z,25.20
2017-06-09T15:35:49.863Z,24.90
2017-06-09T15:38:17.380Z,24.90
2017-06-09T15:40:44.924Z,24.90
2017-06-09T15:43:12.491Z,25.20
2017-06-09T15:45:40.043Z,24.60
2017-06-09T15:48:07.558Z,24.90
2017-06-09T15:50:35.186Z,24.80
2017-06-09T15:53:02.754Z,25.00
2017-06-09T15:55:31.075Z,24.90
2017-06-09T15:57:58.603Z,24.80
2017-06-09T16:00:26.150Z,25.20
2017-06-09T16:02:53.683Z,25.30
2017-06-09T16:05:21.201Z,25.60
2017-06-09T16:07:48.741Z,25.60
2017-06-09T16:10:16.297Z,25.40
2017-06-09T16:12:44.571Z,25.30
2017-06-09T16:15:12.114Z,25.30
2017-06-09T16:17:39.632Z,25.10
2017-06-09T16:20:07.195Z,24.60
2017-06-09T16:22:34.714Z,25.00
2017-06-09T16:25:03.066Z,25.10
2017-06-09T16:27:30.602Z,25.10
2017-06-09T16:29:58.170Z,25.50
2017-06-09T16:32:25.708Z,25.40
2017-06-09T16:34:53.263Z,25.30
2017-06-09T16:37:20.773Z,25.10
2017-06-09T16:39:48.316Z,25.10
2017-06-09T16:42:16.649Z,25.30
2017-06-09T16:44:44.221Z,25.30
2017-06-09T16:47:11.775Z,25.40
2017-06-09T16:49:39.323Z,25.30
2017-06-09T16:52:06.899Z,25.10
2017-06-09T16:54:34.446Z,24.90
2017-06-09T16:57:02.020Z,25.10
2017-06-09T16:59:29.575Z,25.10
2017-06-09T17:01:57.117Z,25.10
2017-06-09T17:04:24.639Z,25.40
2017-06-09T17:06:52.166Z,25.20
2017-06-09T17:09:19.735Z,25.20
2017-06-09T17:11:47.267Z,25.30
2017-06-09T17:14:14.804Z,25.10
2017-06-09T17:16:43.193Z,24.90
2017-06-09T17:19:10.755Z,24.80
2017-06-09T17:21:38.329Z,24.90
2017-06-09T17:24:05.904Z,24.70
2017-06-09T17:26:33.471Z,24.60
2017-06-09T17:29:01.011Z,24.40
2017-06-09T17:31:28.533Z,24.50
2017-06-09T17:33:56.063Z,24.50
2017-06-09T17:36:23.624Z,24.70
2017-06-09T17:38:51.175Z,24.70
2017-06-09T17:41:18.722Z,24.50
2017-06-09T17:43:46.239Z,24.40
2017-06-09T17:46:13.782Z,24.40
2017-06-09T17:48:41.335Z,24.50
2017-06-09T17:51:08.872Z,24.60
2017-06-09T17:53:36.448Z,24.20
2017-06-09T17:56:04.015Z,24.20
2017-06-09T17:58:31.535Z,24.40
2017-06-09T18:00:59.072Z,24.60
2017-06-09T18:03:26.603Z,24.60
2017-06-09T18:05:54.903Z,24.30
2017-06-09T18:08:22.471Z,24.30
2017-06-09T18:10:50.034Z,24.30
2017-06-09T18:13:17.599Z,24.20
2017-06-09T18:15:45.150Z,23.90
2017-06-09T18:18:12.704Z,23.90
2017-06-09T18:20:40.285Z,23.70
2017-06-09T18:23:07.811Z,23.90
2017-06-09T18:25:36.131Z,23.80
2017-06-09T18:28:03.690Z,23.80
2017-06-09T18:30:32.152Z,23.80
2017-06-09T18:32:59.685Z,23.90
2017-06-09T18:35:27.995Z,24.20
2017-06-09T18:37:55.527Z,24.20
2017-06-09T18:40:23.811Z,24.00
2017-06-09T18:42:51.395Z,24.00
2017-06-09T18:45:18.974Z,23.80
2017-06-09T18:47:46.536Z,23.70
2017-06-09T18:50:14.109Z,23.90
2017-06-09T18:52:41.672Z,23.80
2017-06-09T18:55:09.228Z,23.80
2017-06-09T18:57:36.782Z,23.90
2017-06-09T19:00:04.346Z,23.90
2017-06-09T19:02:31.943Z,23.80
2017-06-09T19:05:00.234Z,23.80
2017-06-09T19:07:27.791Z,23.80
2017-06-09T19:09:56.084Z,23.60
2017-06-09T19:12:23.684Z,23.60
2017-06-09T19:14:51.214Z,23.60
2017-06-09T19:17:18.757Z,23.80
2017-06-09T19:19:46.284Z,23.90
2017-06-09T19:22:13.844Z,23.70
2017-06-09T19:24:41.366Z,23.50
2017-06-09T19:27:08.955Z,23.50
2017-06-09T19:29:36.553Z,23.60
2017-06-09T19:32:04.876Z,23.70
2017-06-09T19:34:32.429Z,23.60
2017-06-09T19:36:59.990Z,23.60
2017-06-09T19:39:27.577Z,23.60
2017-06-09T19:41:55.128Z,23.60
2017-06-09T19:44:22.706Z,23.50
2017-06-09T19:46:50.252Z,23.40
2017-06-09T19:49:17.804Z,23.30
2017-06-09T19:51:45.341Z,23.30
2017-06-09T19:54:12.927Z,23.20
2017-06-09T19:56:40.763Z,23.10
2017-06-09T19:59:08.270Z,23.10
2017-06-09T20:01:35.778Z,23.10
2017-06-09T20:04:03.371Z,23.00
2017-06-09T20:06:30.907Z,23.00
2017-06-09T20:08:58.462Z,22.80
2017-06-09T20:11:25.977Z,22.70
2017-06-09T20:13:53.573Z,22.60
2017-06-09T20:16:21.147Z,22.60
2017-06-09T20:18:48.691Z,22.60
2017-06-09T20:21:16.229Z,22.50
2017-06-09T20:23:44.588Z,22.40
2017-06-09T20:26:12.105Z,22.40
2017-06-09T20:28:39.676Z,22.40
2017-06-09T20:31:07.215Z,22.30
2017-06-09T20:33:34.780Z,22.30
2017-06-09T20:36:02.288Z,22.20
2017-06-09T20:38:29.846Z,22.10
2017-06-09T20:40:57.395Z,22.00
2017-06-09T20:43:24.929Z,22.00
2017-06-09T20:45:52.488Z,21.90
2017-06-09T20:48:20.063Z,21.90
2017-06-09T20:50:47.571Z,21.50
2017-06-09T20:53:15.873Z,21.40
2017-06-09T20:55:43.414Z,21.40
2017-06-09T20:58:10.981Z,21.50
2017-06-09T21:00:38.519Z,21.60
2017-06-09T21:03:06.084Z,21.60
2017-06-09T21:05:33.635Z,21.60
2017-06-09T21:08:01.961Z,21.40
2017-06-09T21:10:29.476Z,21.40
2017-06-09T21:12:57.800Z,21.20
2017-06-09T21:15:25.325Z,21.20
2017-06-09T21:17:53.645Z,21.30
2017-06-09T21:20:21.154Z,21.30
2017-06-09T21:22:49.464Z,21.10
2017-06-09T21:25:16.983Z,21.10
2017-06-09T21:27:45.358Z,21.10
2017-06-09T21:30:13.652Z,21.20
2017-06-09T21:32:41.943Z,21.10
2017-06-09T21:35:09.492Z,21.10
2017-06-09T21:37:37.032Z,21.20
2017-06-09T21:40:04.558Z,21.20
2017-06-09T21:42:32.122Z,21.10
2017-06-09T21:44:59.709Z,21.00
2017-06-09T21:47:27.228Z,21.00
2017-06-09T21:49:54.770Z,21.20
2017-06-09T21:52:22.299Z,21.20
2017-06-09T21:54:49.841Z,21.20
2017-06-09T21:57:17.361Z,21.20
2017-06-09T21:59:44.886Z,21.20
2017-06-09T22:02:13.156Z,21.30
2017-06-09T22:04:41.491Z,21.30
2017-06-09T22:07:09.004Z,21.20
2017-06-09T22:09:37.311Z,21.20
2017-06-09T22:12:04.848Z,21.20
2017-06-09T22:14:32.382Z,21.10
2017-06-09T22:17:00.669Z,21.20
2017-06-09T22:19:28.998Z,21.10
2017-06-09T22:21:56.552Z,21.00
2017-06-09T22:24:24.125Z,21.10
2017-06-09T22:26:51.650Z,21.00
2017-06-09T22:29:19.218Z,21.00
2017-06-09T22:31:46.733Z,20.90
2017-06-09T22:34:14.290Z,20.80
2017-06-09T22:36:41.810Z,20.90
2017-06-09T22:39:09.370Z,20.90
2017-06-09T22:41:36.922Z,20.70
2017-06-09T22:44:04.526Z,20.80
2017-06-09T22:46:32.856Z,20.90
2017-06-09T22:49:00.421Z,20.90
2017-06-09T22:51:27.981Z,21.00
2017-06-09T22:53:55.563Z,21.10
2017-06-09T22:56:23.092Z,21.20
2017-06-09T22:58:50.644Z,21.30
2017-06-09T23:01:18.153Z,21.20
2017-06-09T23:03:45.695Z,21.20
2017-06-09T23:06:13.248Z,21.10
2017-06-09T23:08:40.810Z,21.20
2017-06-09T23:11:08.341Z,21.30
2017-06-09T23:13:35.901Z,21.30
2017-06-09T23:16:03.470Z,21.30
2017-06-09T23:18:31.060Z,21.20
2017-06-09T23:20:58.591Z,21.00
2017-06-09T23:23:26.139Z,20.90
2017-06-09T23:25:53.683Z,21.10
2017-06-09T23:28:21.241Z,21.00
2017-06-09T23:30:49.582Z,21.30
2017-06-09T23:33:18.010Z,21.30
2017-06-09T23:35:45.565Z,20.90
2017-06-09T23:38:13.112Z,21.10
2017-06-09T23:40:41.449Z,21.30
2017-06-09T23:43:08.967Z,21.30
2017-06-09T23:45:36.507Z,21.30
2017-06-09T23:48:04.843Z,21.20
2017-06-09T23:50:32.370Z,21.10
2017-06-09T23:52:59.890Z,21.20
2017-06-09T23:55:27.451Z,21.10
2017-06-09T23:57:55.807Z,20.90
